Kadosh — UBAP8 — position and weather

sailwx.info

Track history (hours):
 
Tides and Currents Weather Stations Pressure Air Temp Water Temp Dewpoint Dewpoint Depression Visibility Wind Speed Wind Dir Waves Ship Positions

Kadosh

Last reported at 2017-Oct-15 08:11 UTC. Time now 2017-Oct-18 04:07 UTC.
Position N 45°28' E 036°50'.

Length 65 m; draft 3.4 m.

Type: Dredging. MMSI: 273396090.

Date/timePositionNaut miles runAvg speedWind from/ knotsBaromVisibWave heightAir tempDewpointWater temp
2017-Oct-15 08:11N 45°28' E 036°50'210.0
2017-Oct-15 07:59N 45°28' E 036°48'4 8.4
2017-Oct-15 07:29N 45°26' E 036°42'4 8.4
2017-Oct-15 07:00N 45°23' E 036°41'3 6.8
2017-Oct-15 06:31N 45°20' E 036°37'2 4.0
2017-Oct-15 06:00N 45°19' E 036°35'0 0.2
2017-Oct-15 05:30N 45°19' E 036°35'2 3.6
2017-Oct-15 05:00N 45°18' E 036°32'0 0.2
2017-Oct-15 04:30N 45°18' E 036°32'0 0.0
2017-Oct-15 04:01N 45°18' E 036°32'0 0.0
2017-Oct-15 03:29N 45°18' E 036°32'0 0.0
2017-Oct-15 03:00N 45°18' E 036°32'0 0.0
2017-Oct-15 02:30N 45°18' E 036°32'0 0.0
2017-Oct-15 02:00N 45°18' E 036°32'0 0.0
2017-Oct-15 01:30N 45°18' E 036°32'0 0.0
2017-Oct-15 01:00N 45°18' E 036°32'0 0.0
2017-Oct-15 00:29N 45°18' E 036°32'0 0.0
2017-Oct-15 00:00N 45°18' E 036°32'0 0.0
2017-Oct-14 23:29N 45°18' E 036°32'0 0.0
2017-Oct-14 23:00N 45°18' E 036°32'0 0.0
2017-Oct-14 22:30N 45°18' E 036°32'0 0.0
2017-Oct-14 22:00N 45°18' E 036°32'0 0.0
2017-Oct-14 21:30N 45°18' E 036°32'0 0.0
2017-Oct-14 21:00N 45°18' E 036°32'0 0.0
2017-Oct-14 20:30N 45°18' E 036°32'0 0.0
2017-Oct-14 20:01N 45°18' E 036°32'0 0.0
2017-Oct-14 19:29N 45°18' E 036°32'0 0.0
2017-Oct-14 19:00N 45°18' E 036°32'0 0.0
2017-Oct-14 18:29N 45°18' E 036°32'0 0.0
2017-Oct-14 18:00N 45°18' E 036°32'0 0.0
2017-Oct-14 17:30N 45°18' E 036°32'1 2.5
2017-Oct-14 17:00N 45°19' E 036°31'4 4.2
2017-Oct-14 16:05N 45°15' E 036°29'0 0.5
2017-Oct-14 16:00N 45°15' E 036°29'6 0.9
2017-Oct-14 09:01N 45°09' E 036°29'110.1
2017-Oct-14 08:56N 45°09' E 036°29'410.0
2017-Oct-14 08:30N 45°14' E 036°28'3 6.9
2017-Oct-14 08:00N 45°17' E 036°29'3 6.1
2017-Oct-14 07:29N 45°19' E 036°32'510.0
2017-Oct-14 07:00N 45°21' E 036°38'4 9.1
2017-Oct-14 06:31N 45°25' E 036°41'4 8.8
2017-Oct-14 06:01N 45°28' E 036°46'5 9.4
2017-Oct-14 05:30N 45°28' E 036°52'1 0.0
2017-Oct-12 07:54N 45°28' E 036°51'4 9.0
2017-Oct-12 07:31N 45°28' E 036°46'4 8.0
2017-Oct-12 07:00N 45°26' E 036°41'4 9.0
2017-Oct-12 06:30N 45°21' E 036°40'4 7.7
2017-Oct-12 06:00N 45°20' E 036°35'1 1.2
2017-Oct-12 05:30N 45°19' E 036°35'0 0.0
2017-Oct-12 05:00N 45°19' E 036°35'0 0.0
2017-Oct-12 04:30N 45°19' E 036°35'0 0.0
2017-Oct-12 04:00N 45°19' E 036°35'0 0.0
2017-Oct-12 03:30N 45°19' E 036°35'0 0.0
2017-Oct-12 03:00N 45°19' E 036°35'0 0.0
2017-Oct-12 02:31N 45°19' E 036°35'0 0.0
2017-Oct-12 02:00N 45°19' E 036°35'0 0.0
2017-Oct-12 01:30N 45°19' E 036°35'0 0.0
2017-Oct-12 01:00N 45°19' E 036°35'0 0.0
2017-Oct-12 00:30N 45°19' E 036°35'0 0.0
2017-Oct-12 00:00N 45°19' E 036°35'0 0.0
2017-Oct-11 23:29N 45°19' E 036°35'0 0.1
2017-Oct-11 22:59N 45°19' E 036°35'0 0.1
2017-Oct-11 22:30N 45°19' E 036°35'0 0.1
2017-Oct-11 22:00N 45°19' E 036°35'0 0.1
2017-Oct-11 21:30N 45°19' E 036°35'0 0.1
2017-Oct-11 21:00N 45°19' E 036°35'0 0.1
2017-Oct-11 20:31N 45°19' E 036°35'0 0.0
2017-Oct-11 20:00N 45°19' E 036°35'0 0.1
2017-Oct-11 19:30N 45°19' E 036°35'0 0.0
2017-Oct-11 19:00N 45°19' E 036°35'0 0.0
2017-Oct-11 18:30N 45°19' E 036°35'0 0.0
2017-Oct-11 18:00N 45°19' E 036°35'0 0.0
2017-Oct-11 17:30N 45°19' E 036°35'0 0.0
2017-Oct-11 17:01N 45°19' E 036°35'2 0.1
2017-Oct-10 23:58N 45°18' E 036°32'0 0.0
2017-Oct-10 23:26N 45°18' E 036°32'0 0.0
2017-Oct-10 23:00N 45°18' E 036°32'0 0.0
2017-Oct-10 22:30N 45°18' E 036°32'0 0.0
2017-Oct-10 21:58N 45°18' E 036°32'0 0.0
2017-Oct-10 21:27N 45°18' E 036°32'0 0.0
2017-Oct-10 20:58N 45°18' E 036°32'0 0.0
2017-Oct-10 20:26N 45°18' E 036°32'0 0.0
2017-Oct-10 20:00N 45°18' E 036°32'0 0.0
2017-Oct-10 19:30N 45°18' E 036°32'0 0.0
2017-Oct-10 18:59N 45°18' E 036°32'0 0.0
2017-Oct-10 18:27N 45°18' E 036°32'0 0.0
2017-Oct-10 18:00N 45°18' E 036°32'0 0.0
2017-Oct-10 17:30N 45°18' E 036°32'0 0.0
2017-Oct-10 17:00N 45°18' E 036°32'0 0.0
2017-Oct-10 16:30N 45°18' E 036°32'0 0.0
2017-Oct-10 16:00N 45°18' E 036°32'0 0.1
2017-Oct-10 15:29N 45°18' E 036°32'0 0.0
2017-Oct-10 15:00N 45°18' E 036°32'0 0.0
2017-Oct-10 14:00N 45°18' E 036°32'0 0.4
2017-Oct-10 13:30N 45°18' E 036°32'0 0.2
2017-Oct-10 13:00N 45°19' E 036°32'0 0.0
2017-Oct-10 12:30N 45°19' E 036°32'0 0.0
2017-Oct-10 12:00N 45°19' E 036°32'0 0.0
2017-Oct-10 11:30N 45°19' E 036°32'0 0.0
2017-Oct-10 11:00N 45°19' E 036°32'0 0.0
2017-Oct-10 10:30N 45°19' E 036°32'0 0.0
2017-Oct-10 10:00N 45°19' E 036°32'0 0.0
2017-Oct-10 09:31N 45°19' E 036°32'0 0.0
2017-Oct-10 09:00N 45°19' E 036°32'0 0.0
2017-Oct-10 08:30N 45°19' E 036°32'0 0.0
2017-Oct-10 08:00N 45°19' E 036°32'0 0.0
2017-Oct-10 07:30N 45°19' E 036°32'0 0.0
2017-Oct-10 07:00N 45°19' E 036°32'0 0.0
2017-Oct-10 06:30N 45°19' E 036°32'0 0.0
2017-Oct-10 05:59N 45°19' E 036°32'0 0.0
2017-Oct-10 05:30N 45°19' E 036°32'0 0.0
2017-Oct-10 05:00N 45°19' E 036°32'0 0.0
2017-Oct-10 04:31N 45°19' E 036°32'0 0.0
2017-Oct-10 03:59N 45°19' E 036°32'0 0.1
2017-Oct-10 03:31N 45°19' E 036°32'3 4.9
2017-Oct-10 02:58N 45°17' E 036°29'1 2.2
2017-Oct-10 02:29N 45°16' E 036°29'0 0.0
2017-Oct-10 02:00N 45°16' E 036°29'0 0.0
2017-Oct-10 01:28N 45°16' E 036°29'0 0.0
2017-Oct-10 00:59N 45°16' E 036°29'0 0.0
2017-Oct-10 00:30N 45°16' E 036°29'0 0.0
2017-Oct-10 00:00N 45°16' E 036°29'0 0.0
2017-Oct-09 23:30N 45°16' E 036°29'0 0.0
2017-Oct-09 22:58N 45°16' E 036°29'0 0.0
2017-Oct-09 22:30N 45°16' E 036°29'0 0.0
2017-Oct-09 22:01N 45°16' E 036°29'0 0.0
2017-Oct-09 21:30N 45°16' E 036°29'0 0.0
2017-Oct-09 21:01N 45°16' E 036°29'0 0.0
2017-Oct-09 20:29N 45°16' E 036°29'0 0.0
2017-Oct-09 19:55N 45°16' E 036°29'0 0.0
2017-Oct-09 19:30N 45°16' E 036°29'0 0.0
2017-Oct-09 19:00N 45°16' E 036°29'0 0.0
2017-Oct-09 18:30N 45°16' E 036°29'0 0.1
2017-Oct-09 18:00N 45°16' E 036°29'3 4.6
2017-Oct-09 17:20N 45°13' E 036°29'4 0.8
2017-Oct-09 12:03N 45°09' E 036°29'1 9.9
2017-Oct-09 11:56N 45°10' E 036°29'4 9.3
2017-Oct-09 11:30N 45°14' E 036°28'4 7.7
2017-Oct-09 11:00N 45°18' E 036°29'3 6.0
2017-Oct-09 10:30N 45°19' E 036°32'3 5.8
2017-Oct-09 10:00N 45°20' E 036°36'2 5.0
2017-Oct-09 09:30N 45°21' E 036°39'2 4.6
2017-Oct-09 09:01N 45°24' E 036°40'2 3.7
2017-Oct-09 08:29N 45°25' E 036°41'2 4.8
2017-Oct-09 07:59N 45°27' E 036°43'2 4.3
2017-Oct-09 07:29N 45°28' E 036°46'26 0.9
2017-Oct-08 02:26N 45°20' E 037°22'0 0.1
2017-Oct-08 01:59N 45°20' E 037°21'22 5.0
2017-Oct-07 21:37N 45°28' E 036°53'1 7.6
2017-Oct-07 21:31N 45°28' E 036°51'4 8.6
2017-Oct-07 21:00N 45°28' E 036°45'4 7.9
2017-Oct-07 20:30N 45°25' E 036°41'4 8.3
2017-Oct-07 20:01N 45°21' E 036°40'4 7.8
2017-Oct-07 19:30N 45°19' E 036°35'5 6.7
2017-Oct-07 18:49N 45°17' E 036°29'1 3.2
2017-Oct-07 18:30N 45°16' E 036°29'4 7.7
2017-Oct-07 18:00N 45°13' E 036°28'13 2.9
2017-Oct-07 13:34N 45°01' E 036°35'3 8.1
2017-Oct-07 13:10N 45°02' E 036°31'1 8.8
2017-Oct-07 13:00N 45°03' E 036°30'6 9.4
2017-Oct-07 12:22N 45°09' E 036°29'3 9.4
2017-Oct-07 12:00N 45°12' E 036°28'4 7.7
2017-Oct-07 11:30N 45°16' E 036°28'3 6.1
2017-Oct-07 11:00N 45°19' E 036°31'3 6.9
2017-Oct-07 10:30N 45°20' E 036°36'4 7.2
2017-Oct-07 09:59N 45°22' E 036°40'4 7.8
2017-Oct-07 09:30N 45°26' E 036°41'2 4.0
2017-Oct-07 08:59N 45°28' E 036°39'0 0.0
2017-Oct-07 08:30N 45°28' E 036°39'0 0.1
2017-Oct-07 08:00N 45°28' E 036°39'0 0.0
2017-Oct-07 07:30N 45°28' E 036°39'0 0.0
2017-Oct-07 07:00N 45°28' E 036°39'0 0.0
2017-Oct-07 06:28N 45°28' E 036°39'0 0.0
2017-Oct-07 06:00N 45°28' E 036°39'0 0.8
2017-Oct-07 05:30N 45°28' E 036°40'5 8.7
2017-Oct-07 04:59N 45°28' E 036°46'4 8.9
2017-Oct-07 04:29N 45°28' E 036°52'1 0.0
2017-Oct-06 00:18N 45°28' E 036°51'3 9.2
2017-Oct-06 00:00N 45°28' E 036°48'4 8.1
2017-Oct-05 23:30N 45°26' E 036°42'4 8.6
2017-Oct-05 23:00N 45°22' E 036°41'3 7.0
2017-Oct-05 22:30N 45°20' E 036°37'4 8.5
2017-Oct-05 22:00N 45°19' E 036°31'4 7.3
2017-Oct-05 21:30N 45°15' E 036°29'4 0.6
2017-Oct-05 15:20N 45°12' E 036°28'3 8.6
2017-Oct-05 14:58N 45°15' E 036°28'3 6.6
2017-Oct-05 14:29N 45°18' E 036°29'4 7.2
2017-Oct-05 13:59N 45°19' E 036°33'4 7.9
2017-Oct-05 13:30N 45°21' E 036°38'4 7.9
2017-Oct-05 13:00N 45°25' E 036°41'4 7.5
2017-Oct-05 12:29N 45°29' E 036°40'1 1.8
2017-Oct-05 11:59N 45°29' E 036°39'0 0.0
2017-Oct-05 11:29N 45°29' E 036°39'0 0.0
2017-Oct-05 11:00N 45°29' E 036°39'0 0.0
2017-Oct-05 10:29N 45°29' E 036°39'0 0.0
2017-Oct-05 10:00N 45°29' E 036°39'1 2.6
2017-Oct-05 09:30N 45°28' E 036°40'3 6.5
2017-Oct-05 09:00N 45°28' E 036°45'4 8.2
2017-Oct-05 08:29N 45°28' E 036°51'  
Track history (hours):
 
Tides and Currents Weather Stations Pressure Air Temp Water Temp Dewpoint Dewpoint Depression Visibility Wind Speed Wind Dir Waves Ship Positions

Kadosh

Last reported at 2017-Oct-15 08:11 UTC. Time now 2017-Oct-18 04:07 UTC.
Position N 45°28' E 036°50'.

Length 65 m; draft 3.4 m.

Type: Dredging. MMSI: 273396090.

Date/timePositionNaut miles runAvg speedWind from/ knotsBaromVisibWave heightAir tempDewpointWater temp
2017-Oct-15 08:11N 45°28' E 036°50'210.0
2017-Oct-15 07:59N 45°28' E 036°48'4 8.4
2017-Oct-15 07:29N 45°26' E 036°42'4 8.4
2017-Oct-15 07:00N 45°23' E 036°41'3 6.8
2017-Oct-15 06:31N 45°20' E 036°37'2 4.0
2017-Oct-15 06:00N 45°19' E 036°35'0 0.2
2017-Oct-15 05:30N 45°19' E 036°35'2 3.6
2017-Oct-15 05:00N 45°18' E 036°32'0 0.2
2017-Oct-15 04:30N 45°18' E 036°32'0 0.0
2017-Oct-15 04:01N 45°18' E 036°32'0 0.0
2017-Oct-15 03:29N 45°18' E 036°32'0 0.0
2017-Oct-15 03:00N 45°18' E 036°32'0 0.0
2017-Oct-15 02:30N 45°18' E 036°32'0 0.0
2017-Oct-15 02:00N 45°18' E 036°32'0 0.0
2017-Oct-15 01:30N 45°18' E 036°32'0 0.0
2017-Oct-15 01:00N 45°18' E 036°32'0 0.0
2017-Oct-15 00:29N 45°18' E 036°32'0 0.0
2017-Oct-15 00:00N 45°18' E 036°32'0 0.0
2017-Oct-14 23:29N 45°18' E 036°32'0 0.0
2017-Oct-14 23:00N 45°18' E 036°32'0 0.0
2017-Oct-14 22:30N 45°18' E 036°32'0 0.0
2017-Oct-14 22:00N 45°18' E 036°32'0 0.0
2017-Oct-14 21:30N 45°18' E 036°32'0 0.0
2017-Oct-14 21:00N 45°18' E 036°32'0 0.0
2017-Oct-14 20:30N 45°18' E 036°32'0 0.0
2017-Oct-14 20:01N 45°18' E 036°32'0 0.0
2017-Oct-14 19:29N 45°18' E 036°32'0 0.0
2017-Oct-14 19:00N 45°18' E 036°32'0 0.0
2017-Oct-14 18:29N 45°18' E 036°32'0 0.0
2017-Oct-14 18:00N 45°18' E 036°32'0 0.0
2017-Oct-14 17:30N 45°18' E 036°32'1 2.5
2017-Oct-14 17:00N 45°19' E 036°31'4 4.2
2017-Oct-14 16:05N 45°15' E 036°29'0 0.5
2017-Oct-14 16:00N 45°15' E 036°29'6 0.9
2017-Oct-14 09:01N 45°09' E 036°29'110.1
2017-Oct-14 08:56N 45°09' E 036°29'410.0
2017-Oct-14 08:30N 45°14' E 036°28'3 6.9
2017-Oct-14 08:00N 45°17' E 036°29'3 6.1
2017-Oct-14 07:29N 45°19' E 036°32'510.0
2017-Oct-14 07:00N 45°21' E 036°38'4 9.1
2017-Oct-14 06:31N 45°25' E 036°41'4 8.8
2017-Oct-14 06:01N 45°28' E 036°46'5 9.4
2017-Oct-14 05:30N 45°28' E 036°52'1 0.0
2017-Oct-12 07:54N 45°28' E 036°51'4 9.0
2017-Oct-12 07:31N 45°28' E 036°46'4 8.0
2017-Oct-12 07:00N 45°26' E 036°41'4 9.0
2017-Oct-12 06:30N 45°21' E 036°40'4 7.7
2017-Oct-12 06:00N 45°20' E 036°35'1 1.2
2017-Oct-12 05:30N 45°19' E 036°35'0 0.0
2017-Oct-12 05:00N 45°19' E 036°35'0 0.0
2017-Oct-12 04:30N 45°19' E 036°35'0 0.0
2017-Oct-12 04:00N 45°19' E 036°35'0 0.0
2017-Oct-12 03:30N 45°19' E 036°35'0 0.0
2017-Oct-12 03:00N 45°19' E 036°35'0 0.0
2017-Oct-12 02:31N 45°19' E 036°35'0 0.0
2017-Oct-12 02:00N 45°19' E 036°35'0 0.0
2017-Oct-12 01:30N 45°19' E 036°35'0 0.0
2017-Oct-12 01:00N 45°19' E 036°35'0 0.0
2017-Oct-12 00:30N 45°19' E 036°35'0 0.0
2017-Oct-12 00:00N 45°19' E 036°35'0 0.0
2017-Oct-11 23:29N 45°19' E 036°35'0 0.1
2017-Oct-11 22:59N 45°19' E 036°35'0 0.1
2017-Oct-11 22:30N 45°19' E 036°35'0 0.1
2017-Oct-11 22:00N 45°19' E 036°35'0 0.1
2017-Oct-11 21:30N 45°19' E 036°35'0 0.1
2017-Oct-11 21:00N 45°19' E 036°35'0 0.1
2017-Oct-11 20:31N 45°19' E 036°35'0 0.0
2017-Oct-11 20:00N 45°19' E 036°35'0 0.1
2017-Oct-11 19:30N 45°19' E 036°35'0 0.0
2017-Oct-11 19:00N 45°19' E 036°35'0 0.0
2017-Oct-11 18:30N 45°19' E 036°35'0 0.0
2017-Oct-11 18:00N 45°19' E 036°35'0 0.0
2017-Oct-11 17:30N 45°19' E 036°35'0 0.0
2017-Oct-11 17:01N 45°19' E 036°35'2 0.1
2017-Oct-10 23:58N 45°18' E 036°32'0 0.0
2017-Oct-10 23:26N 45°18' E 036°32'0 0.0
2017-Oct-10 23:00N 45°18' E 036°32'0 0.0
2017-Oct-10 22:30N 45°18' E 036°32'0 0.0
2017-Oct-10 21:58N 45°18' E 036°32'0 0.0
2017-Oct-10 21:27N 45°18' E 036°32'0 0.0
2017-Oct-10 20:58N 45°18' E 036°32'0 0.0
2017-Oct-10 20:26N 45°18' E 036°32'0 0.0
2017-Oct-10 20:00N 45°18' E 036°32'0 0.0
2017-Oct-10 19:30N 45°18' E 036°32'0 0.0
2017-Oct-10 18:59N 45°18' E 036°32'0 0.0
2017-Oct-10 18:27N 45°18' E 036°32'0 0.0
2017-Oct-10 18:00N 45°18' E 036°32'0 0.0
2017-Oct-10 17:30N 45°18' E 036°32'0 0.0
2017-Oct-10 17:00N 45°18' E 036°32'0 0.0
2017-Oct-10 16:30N 45°18' E 036°32'0 0.0
2017-Oct-10 16:00N 45°18' E 036°32'0 0.1
2017-Oct-10 15:29N 45°18' E 036°32'0 0.0
2017-Oct-10 15:00N 45°18' E 036°32'0 0.0
2017-Oct-10 14:00N 45°18' E 036°32'0 0.4
2017-Oct-10 13:30N 45°18' E 036°32'0 0.2
2017-Oct-10 13:00N 45°19' E 036°32'0 0.0
2017-Oct-10 12:30N 45°19' E 036°32'0 0.0
2017-Oct-10 12:00N 45°19' E 036°32'0 0.0
2017-Oct-10 11:30N 45°19' E 036°32'0 0.0
2017-Oct-10 11:00N 45°19' E 036°32'0 0.0
2017-Oct-10 10:30N 45°19' E 036°32'0 0.0
2017-Oct-10 10:00N 45°19' E 036°32'0 0.0
2017-Oct-10 09:31N 45°19' E 036°32'0 0.0
2017-Oct-10 09:00N 45°19' E 036°32'0 0.0
2017-Oct-10 08:30N 45°19' E 036°32'0 0.0
2017-Oct-10 08:00N 45°19' E 036°32'0 0.0
2017-Oct-10 07:30N 45°19' E 036°32'0 0.0
2017-Oct-10 07:00N 45°19' E 036°32'0 0.0
2017-Oct-10 06:30N 45°19' E 036°32'0 0.0
2017-Oct-10 05:59N 45°19' E 036°32'0 0.0
2017-Oct-10 05:30N 45°19' E 036°32'0 0.0
2017-Oct-10 05:00N 45°19' E 036°32'0 0.0
2017-Oct-10 04:31N 45°19' E 036°32'0 0.0
2017-Oct-10 03:59N 45°19' E 036°32'0 0.1
2017-Oct-10 03:31N 45°19' E 036°32'3 4.9
2017-Oct-10 02:58N 45°17' E 036°29'1 2.2
2017-Oct-10 02:29N 45°16' E 036°29'0 0.0
2017-Oct-10 02:00N 45°16' E 036°29'0 0.0
2017-Oct-10 01:28N 45°16' E 036°29'0 0.0
2017-Oct-10 00:59N 45°16' E 036°29'0 0.0
2017-Oct-10 00:30N 45°16' E 036°29'0 0.0
2017-Oct-10 00:00N 45°16' E 036°29'0 0.0
2017-Oct-09 23:30N 45°16' E 036°29'0 0.0
2017-Oct-09 22:58N 45°16' E 036°29'0 0.0
2017-Oct-09 22:30N 45°16' E 036°29'0 0.0
2017-Oct-09 22:01N 45°16' E 036°29'0 0.0
2017-Oct-09 21:30N 45°16' E 036°29'0 0.0
2017-Oct-09 21:01N 45°16' E 036°29'0 0.0
2017-Oct-09 20:29N 45°16' E 036°29'0 0.0
2017-Oct-09 19:55N 45°16' E 036°29'0 0.0
2017-Oct-09 19:30N 45°16' E 036°29'0 0.0
2017-Oct-09 19:00N 45°16' E 036°29'0 0.0
2017-Oct-09 18:30N 45°16' E 036°29'0 0.1
2017-Oct-09 18:00N 45°16' E 036°29'3 4.6
2017-Oct-09 17:20N 45°13' E 036°29'4 0.8
2017-Oct-09 12:03N 45°09' E 036°29'1 9.9
2017-Oct-09 11:56N 45°10' E 036°29'4 9.3
2017-Oct-09 11:30N 45°14' E 036°28'4 7.7
2017-Oct-09 11:00N 45°18' E 036°29'3 6.0
2017-Oct-09 10:30N 45°19' E 036°32'3 5.8
2017-Oct-09 10:00N 45°20' E 036°36'2 5.0
2017-Oct-09 09:30N 45°21' E 036°39'2 4.6
2017-Oct-09 09:01N 45°24' E 036°40'2 3.7
2017-Oct-09 08:29N 45°25' E 036°41'2 4.8
2017-Oct-09 07:59N 45°27' E 036°43'2 4.3
2017-Oct-09 07:29N 45°28' E 036°46'26 0.9
2017-Oct-08 02:26N 45°20' E 037°22'0 0.1
2017-Oct-08 01:59N 45°20' E 037°21'22 5.0
2017-Oct-07 21:37N 45°28' E 036°53'1 7.6
2017-Oct-07 21:31N 45°28' E 036°51'4 8.6
2017-Oct-07 21:00N 45°28' E 036°45'4 7.9
2017-Oct-07 20:30N 45°25' E 036°41'4 8.3
2017-Oct-07 20:01N 45°21' E 036°40'4 7.8
2017-Oct-07 19:30N 45°19' E 036°35'5 6.7
2017-Oct-07 18:49N 45°17' E 036°29'1 3.2
2017-Oct-07 18:30N 45°16' E 036°29'4 7.7
2017-Oct-07 18:00N 45°13' E 036°28'13 2.9
2017-Oct-07 13:34N 45°01' E 036°35'3 8.1
2017-Oct-07 13:10N 45°02' E 036°31'1 8.8
2017-Oct-07 13:00N 45°03' E 036°30'6 9.4
2017-Oct-07 12:22N 45°09' E 036°29'3 9.4
2017-Oct-07 12:00N 45°12' E 036°28'4 7.7
2017-Oct-07 11:30N 45°16' E 036°28'3 6.1
2017-Oct-07 11:00N 45°19' E 036°31'3 6.9
2017-Oct-07 10:30N 45°20' E 036°36'4 7.2
2017-Oct-07 09:59N 45°22' E 036°40'4 7.8
2017-Oct-07 09:30N 45°26' E 036°41'2 4.0
2017-Oct-07 08:59N 45°28' E 036°39'0 0.0
2017-Oct-07 08:30N 45°28' E 036°39'0 0.1
2017-Oct-07 08:00N 45°28' E 036°39'0 0.0
2017-Oct-07 07:30N 45°28' E 036°39'0 0.0
2017-Oct-07 07:00N 45°28' E 036°39'0 0.0
2017-Oct-07 06:28N 45°28' E 036°39'0 0.0
2017-Oct-07 06:00N 45°28' E 036°39'0 0.8
2017-Oct-07 05:30N 45°28' E 036°40'5 8.7
2017-Oct-07 04:59N 45°28' E 036°46'4 8.9
2017-Oct-07 04:29N 45°28' E 036°52'1 0.0
2017-Oct-06 00:18N 45°28' E 036°51'3 9.2
2017-Oct-06 00:00N 45°28' E 036°48'4 8.1
2017-Oct-05 23:30N 45°26' E 036°42'4 8.6
2017-Oct-05 23:00N 45°22' E 036°41'3 7.0
2017-Oct-05 22:30N 45°20' E 036°37'4 8.5
2017-Oct-05 22:00N 45°19' E 036°31'4 7.3
2017-Oct-05 21:30N 45°15' E 036°29'4 0.6
2017-Oct-05 15:20N 45°12' E 036°28'3 8.6
2017-Oct-05 14:58N 45°15' E 036°28'3 6.6
2017-Oct-05 14:29N 45°18' E 036°29'4 7.2
2017-Oct-05 13:59N 45°19' E 036°33'4 7.9
2017-Oct-05 13:30N 45°21' E 036°38'4 7.9
2017-Oct-05 13:00N 45°25' E 036°41'4 7.5
2017-Oct-05 12:29N 45°29' E 036°40'1 1.8
2017-Oct-05 11:59N 45°29' E 036°39'0 0.0
2017-Oct-05 11:29N 45°29' E 036°39'0 0.0
2017-Oct-05 11:00N 45°29' E 036°39'0 0.0
2017-Oct-05 10:29N 45°29' E 036°39'0 0.0
2017-Oct-05 10:00N 45°29' E 036°39'1 2.6
2017-Oct-05 09:30N 45°28' E 036°40'3 6.5
2017-Oct-05 09:00N 45°28' E 036°45'4 8.2
2017-Oct-05 08:29N 45°28' E 036°51'  

Dump ship's entire track history